createdAt,value
2024-01-16T00:02:20.761Z,-2.79
2024-01-16T00:06:03.839Z,-2.77
2024-01-16T00:09:47.847Z,-2.79
2024-01-16T00:13:32.120Z,-2.83
2024-01-16T00:17:15.052Z,-2.78
2024-01-16T00:20:57.984Z,-2.71
2024-01-16T00:24:41.329Z,-2.77
2024-01-16T00:28:24.188Z,-2.69
2024-01-16T00:32:08.675Z,-2.66
2024-01-16T00:35:52.414Z,-2.62
2024-01-16T00:39:35.399Z,-2.71
2024-01-16T00:43:18.354Z,-2.82
2024-01-16T00:47:02.886Z,-2.79
2024-01-16T00:50:47.520Z,-2.83
2024-01-16T00:54:30.488Z,-2.91
2024-01-16T00:58:13.800Z,-2.91
2024-01-16T01:01:56.661Z,-2.96
2024-01-16T01:05:39.934Z,-2.97
2024-01-16T01:09:24.616Z,-3.05
2024-01-16T01:13:07.480Z,-3.03
2024-01-16T01:16:50.399Z,-3.07
2024-01-16T01:20:33.431Z,-3.08
2024-01-16T01:24:16.427Z,-3.10
2024-01-16T01:28:01.353Z,-3.12
2024-01-16T01:31:47.974Z,-3.11
2024-01-16T01:35:30.838Z,-3.04
2024-01-16T01:39:13.773Z,-3.03
2024-01-16T01:42:56.680Z,-2.99
2024-01-16T01:46:41.417Z,-2.96
2024-01-16T01:50:24.358Z,-2.99
2024-01-16T01:54:07.346Z,-2.94
2024-01-16T01:57:50.178Z,-2.93
2024-01-16T02:01:33.930Z,-2.94
2024-01-16T02:05:18.454Z,-2.83
2024-01-16T02:09:01.513Z,-2.76
2024-01-16T02:12:44.409Z,-2.71
2024-01-16T02:16:27.403Z,-2.68
2024-01-16T02:20:11.514Z,-2.75
2024-01-16T02:23:56.191Z,-2.74
2024-01-16T02:27:39.296Z,-2.83
2024-01-16T02:31:22.125Z,-2.91
2024-01-16T02:35:06.382Z,-2.99
2024-01-16T02:38:49.757Z,-3.02
2024-01-16T02:42:34.023Z,-2.98
2024-01-16T02:46:17.288Z,-2.87
2024-01-16T02:50:00.499Z,-2.86
2024-01-16T02:53:43.572Z,-2.92
2024-01-16T02:57:26.581Z,-2.97
2024-01-16T03:01:10.897Z,-3.04
2024-01-16T03:04:53.887Z,-3.08
2024-01-16T03:08:36.810Z,-3.12
2024-01-16T03:12:19.696Z,-3.12
2024-01-16T03:16:03.218Z,-3.10
2024-01-16T03:19:47.659Z,-3.09
2024-01-16T03:23:30.604Z,-3.27
2024-01-16T03:27:13.758Z,-3.25
2024-01-16T03:30:56.799Z,-3.41
2024-01-16T03:34:39.784Z,-3.42
2024-01-16T03:38:24.132Z,-3.47
2024-01-16T03:42:07.139Z,-3.54
2024-01-16T03:45:50.076Z,-3.56
2024-01-16T03:49:33.064Z,-3.51
2024-01-16T03:53:16.013Z,-3.59
2024-01-16T03:57:03.336Z,-3.61
2024-01-16T04:00:46.587Z,-3.60
2024-01-16T04:04:29.462Z,-3.63
2024-01-16T04:08:13.663Z,-3.53
2024-01-16T04:11:56.652Z,-3.45
2024-01-16T04:15:41.811Z,-3.34
2024-01-16T04:19:24.923Z,-3.29
2024-01-16T04:23:08.088Z,-3.28
2024-01-16T04:26:51.894Z,-3.32
2024-01-16T04:30:35.037Z,-3.35
2024-01-16T04:34:19.496Z,-3.33
2024-01-16T04:38:02.337Z,-3.36
2024-01-16T04:41:45.372Z,-3.35
2024-01-16T04:45:28.362Z,-3.44
2024-01-16T04:49:11.292Z,-3.56
2024-01-16T04:52:55.536Z,-3.54
2024-01-16T04:56:38.448Z,-3.57
2024-01-16T05:00:21.446Z,-3.54
2024-01-16T05:04:05.134Z,-3.59
2024-01-16T05:07:48.175Z,-3.59
2024-01-16T05:11:32.684Z,-3.60
2024-01-16T05:15:16.021Z,-3.63
2024-01-16T05:18:59.062Z,-3.73
2024-01-16T05:22:42.089Z,-3.71
2024-01-16T05:26:27.361Z,-3.72
2024-01-16T05:30:12.632Z,-3.76
2024-01-16T05:33:55.671Z,-3.76
2024-01-16T05:37:38.774Z,-3.80
2024-01-16T05:41:21.753Z,-3.83
2024-01-16T05:45:05.262Z,-3.80
2024-01-16T05:48:49.746Z,-3.82
2024-01-16T05:52:32.769Z,-3.85
2024-01-16T05:56:15.868Z,-2.71
2024-01-16T05:59:58.836Z,-2.15
2024-01-16T06:03:41.809Z,-2.32
2024-01-16T06:07:26.058Z,-2.56
2024-01-16T06:11:10.084Z,-2.75
2024-01-16T06:14:54.018Z,-2.98
2024-01-16T06:18:37.232Z,-3.07
2024-01-16T06:22:20.336Z,-3.19
2024-01-16T06:26:04.703Z,-3.31
2024-01-16T06:29:47.784Z,-3.34
2024-01-16T06:33:31.002Z,-3.46
2024-01-16T06:37:14.004Z,-3.47
2024-01-16T06:40:57.297Z,-3.51
2024-01-16T06:44:41.686Z,-3.45
2024-01-16T06:48:24.851Z,-3.47
2024-01-16T06:52:10.301Z,-3.43
2024-01-16T06:55:53.166Z,-3.41
2024-01-16T06:59:36.069Z,-3.40
2024-01-16T07:03:20.400Z,-3.38
2024-01-16T07:07:04.008Z,-3.33
2024-01-16T07:10:47.196Z,-3.27
2024-01-16T07:14:30.143Z,-3.25
2024-01-16T07:18:13.294Z,-3.20
2024-01-16T07:21:57.641Z,-3.17
2024-01-16T07:25:41.108Z,-3.14
2024-01-16T07:29:23.994Z,-3.08
2024-01-16T07:33:06.980Z,-3.07
2024-01-16T07:36:50.269Z,-3.03
2024-01-16T07:40:34.467Z,-2.98
2024-01-16T07:44:17.376Z,-3.15
2024-01-16T07:48:00.587Z,-3.09
2024-01-16T07:51:43.470Z,-3.07
2024-01-16T07:55:26.387Z,-3.00
2024-01-16T07:59:10.818Z,-2.93
2024-01-16T08:02:56.483Z,-2.88
2024-01-16T08:06:39.519Z,-2.80
2024-01-16T08:10:25.745Z,-2.77
2024-01-16T08:14:10.142Z,-2.76
2024-01-16T08:17:56.268Z,-2.66
2024-01-16T08:21:39.250Z,-2.52
2024-01-16T08:25:22.183Z,-2.42
2024-01-16T08:29:06.365Z,-2.33
2024-01-16T08:32:50.721Z,-2.20
2024-01-16T08:36:33.845Z,-2.03
2024-01-16T08:40:16.877Z,-1.96
2024-01-16T08:44:01.942Z,-1.91
2024-01-16T08:47:44.990Z,-1.83
2024-01-16T08:51:29.401Z,-1.73
2024-01-16T08:55:13.655Z,-1.66
2024-01-16T08:58:56.828Z,-1.54
2024-01-16T09:02:39.846Z,-1.49
2024-01-16T09:06:23.222Z,-1.50
2024-01-16T09:10:08.592Z,-1.43
2024-01-16T09:13:55.076Z,-1.34
2024-01-16T09:17:38.265Z,-1.33
2024-01-16T09:21:21.267Z,-1.15
2024-01-16T09:25:04.273Z,-1.02
2024-01-16T09:28:48.578Z,-0.86
2024-01-16T09:32:31.878Z,-0.85
2024-01-16T09:36:14.935Z,-0.80
2024-01-16T09:39:57.883Z,-0.72
2024-01-16T09:43:41.344Z,-0.68
2024-01-16T09:47:26.822Z,-0.63
2024-01-16T09:51:09.958Z,-0.53
2024-01-16T09:54:52.863Z,-0.40
2024-01-16T09:58:39.016Z,-0.37
2024-01-16T10:02:23.202Z,-0.31
2024-01-16T10:06:09.069Z,-0.25
2024-01-16T10:09:52.143Z,-0.30
2024-01-16T10:13:35.282Z,-0.40
2024-01-16T10:17:19.729Z,-0.35
2024-01-16T10:21:03.057Z,-0.17
2024-01-16T10:24:47.678Z,-0.08
2024-01-16T10:28:30.594Z,0.04
2024-01-16T10:32:13.585Z,0.19
2024-01-16T10:36:10.013Z,0.29
2024-01-16T10:39:54.287Z,0.29
2024-01-16T10:43:37.285Z,0.30
2024-01-16T10:47:20.181Z,0.39
2024-01-16T10:51:12.817Z,0.47
2024-01-16T10:54:59.473Z,0.63
2024-01-16T10:58:43.683Z,0.66
2024-01-16T11:02:30.396Z,0.67
2024-01-16T11:06:14.606Z,0.71
2024-01-16T11:09:59.069Z,0.78
2024-01-16T11:13:42.363Z,0.85
2024-01-16T11:17:25.838Z,0.97
2024-01-16T11:21:14.319Z,1.05
2024-01-16T11:25:14.732Z,1.14
2024-01-16T11:28:58.288Z,1.20
2024-01-16T11:32:42.715Z,1.26
2024-01-16T11:37:02.375Z,1.30
2024-01-16T11:40:46.785Z,1.34
2024-01-16T11:44:43.628Z,1.30
2024-01-16T11:48:27.107Z,1.37
2024-01-16T11:52:12.277Z,1.52
2024-01-16T11:56:13.646Z,1.64
2024-01-16T12:00:01.311Z,1.61
2024-01-16T12:03:44.527Z,1.62
2024-01-16T12:07:27.475Z,1.58
2024-01-16T12:11:11.786Z,1.55
2024-01-16T12:14:55.696Z,1.55
2024-01-16T12:18:43.053Z,1.61
2024-01-16T12:22:29.598Z,1.68
2024-01-16T12:26:22.247Z,1.78
2024-01-16T12:30:09.486Z,1.77
2024-01-16T12:33:58.363Z,1.78
2024-01-16T12:37:59.970Z,1.82
2024-01-16T12:41:46.464Z,1.80
2024-01-16T12:45:30.779Z,1.89
2024-01-16T12:49:13.817Z,2.04
2024-01-16T12:53:06.589Z,2.12
2024-01-16T12:57:00.430Z,2.11
2024-01-16T13:00:43.763Z,2.02
2024-01-16T13:04:26.678Z,2.06
2024-01-16T13:08:10.008Z,2.08
2024-01-16T13:11:56.717Z,2.10
2024-01-16T13:15:40.091Z,2.12
2024-01-16T13:19:23.601Z,2.12
2024-01-16T13:23:06.546Z,2.12
2024-01-16T13:26:49.462Z,2.13
2024-01-16T13:30:43.771Z,2.14
2024-01-16T13:34:30.538Z,2.10
2024-01-16T13:38:14.393Z,2.05
2024-01-16T13:41:57.632Z,1.99
2024-01-16T13:45:42.721Z,1.96
2024-01-16T13:49:25.818Z,1.93
2024-01-16T13:53:09.035Z,1.92
2024-01-16T13:57:02.666Z,1.89
2024-01-16T14:00:54.669Z,1.98
2024-01-16T14:04:37.682Z,1.97
2024-01-16T14:08:23.001Z,1.96
2024-01-16T14:12:09.729Z,1.93
2024-01-16T14:15:54.352Z,1.85
2024-01-16T14:19:37.351Z,1.81
2024-01-16T14:23:21.673Z,1.79
2024-01-16T14:27:05.496Z,1.78
2024-01-16T14:30:50.010Z,1.72
2024-01-16T14:34:34.446Z,1.72
2024-01-16T14:38:17.510Z,1.69
2024-01-16T14:42:00.821Z,1.69
2024-01-16T14:45:44.025Z,1.66
2024-01-16T14:49:32.629Z,1.66
2024-01-16T14:53:17.037Z,1.58
2024-01-16T14:57:00.164Z,1.55
2024-01-16T15:00:46.727Z,1.53
2024-01-16T15:04:29.758Z,1.49
2024-01-16T15:08:14.174Z,1.44
2024-01-16T15:11:58.680Z,1.42
2024-01-16T15:15:41.675Z,1.64
2024-01-16T15:19:24.612Z,1.90
2024-01-16T15:23:07.627Z,2.13
2024-01-16T15:26:50.590Z,2.26
2024-01-16T15:30:36.858Z,2.35
2024-01-16T15:34:19.966Z,2.35
2024-01-16T15:38:03.861Z,2.23
2024-01-16T15:41:47.323Z,2.05
2024-01-16T15:45:30.949Z,1.85
2024-01-16T15:49:16.082Z,1.66
2024-01-16T15:52:59.279Z,1.48
2024-01-16T15:56:42.156Z,1.33
2024-01-16T16:00:24.998Z,1.18
2024-01-16T16:04:08.325Z,1.05
2024-01-16T16:07:52.698Z,0.92
2024-01-16T16:11:37.123Z,0.81
2024-01-16T16:15:20.205Z,0.70
2024-01-16T16:19:03.345Z,0.57
2024-01-16T16:22:48.392Z,0.45
2024-01-16T16:26:34.073Z,0.33
2024-01-16T16:30:17.156Z,0.22
2024-01-16T16:34:01.463Z,0.10
2024-01-16T16:37:45.432Z,-0.03
2024-01-16T16:41:29.807Z,-0.13
2024-01-16T16:45:14.146Z,-0.24
2024-01-16T16:48:57.627Z,-0.31
2024-01-16T16:52:40.778Z,-0.40
2024-01-16T16:56:24.848Z,-0.46
2024-01-16T17:00:09.632Z,-0.52
2024-01-16T17:03:54.693Z,-0.55
2024-01-16T17:07:37.758Z,-0.60
2024-01-16T17:11:20.837Z,-0.66
2024-01-16T17:15:05.784Z,-0.72
2024-01-16T17:18:49.147Z,-0.76
2024-01-16T17:22:33.427Z,-0.82
2024-01-16T17:26:16.621Z,-0.91
2024-01-16T17:29:59.796Z,-0.94
2024-01-16T17:33:44.209Z,-1.01
2024-01-16T17:37:27.758Z,-1.07
2024-01-16T17:41:12.190Z,-1.14
2024-01-16T17:44:59.837Z,-1.20
2024-01-16T17:48:44.384Z,-1.25
2024-01-16T17:52:27.427Z,-1.28
2024-01-16T17:56:10.580Z,-1.32
2024-01-16T17:59:55.102Z,-1.39
2024-01-16T18:03:43.078Z,-1.44
2024-01-16T18:07:29.689Z,-1.48
2024-01-16T18:11:13.932Z,-1.52
2024-01-16T18:14:58.694Z,-1.57
2024-01-16T18:18:43.144Z,-1.68
2024-01-16T18:22:26.400Z,-1.74
2024-01-16T18:26:09.937Z,-1.77
2024-01-16T18:29:52.958Z,-1.82
2024-01-16T18:33:39.457Z,-1.86
2024-01-16T18:37:23.062Z,-1.93
2024-01-16T18:41:06.252Z,-2.01
2024-01-16T18:44:49.819Z,-2.08
2024-01-16T18:48:34.270Z,-2.15
2024-01-16T18:52:18.946Z,-2.20
2024-01-16T18:56:01.829Z,-2.22
2024-01-16T18:59:46.246Z,-2.27
2024-01-16T19:03:29.280Z,-2.31
2024-01-16T19:07:13.952Z,-2.31
2024-01-16T19:10:58.144Z,-2.32
2024-01-16T19:14:45.918Z,-2.34
2024-01-16T19:18:32.364Z,-2.38
2024-01-16T19:22:15.384Z,-2.39
2024-01-16T19:25:59.776Z,-2.49
2024-01-16T19:29:42.670Z,-2.57
2024-01-16T19:33:25.649Z,-2.63
2024-01-16T19:37:08.752Z,-2.69
2024-01-16T19:40:51.878Z,-2.71
2024-01-16T19:44:36.116Z,-2.74
2024-01-16T19:48:20.493Z,-2.79
2024-01-16T19:52:03.834Z,-2.78
2024-01-16T19:55:47.600Z,-2.81
2024-01-16T19:59:32.051Z,-2.81
2024-01-16T20:03:16.473Z,-2.81
2024-01-16T20:06:59.511Z,-2.81
2024-01-16T20:10:42.485Z,-2.81
2024-01-16T20:14:25.453Z,-2.80
2024-01-16T20:18:10.813Z,-2.85
2024-01-16T20:21:55.193Z,-2.93
2024-01-16T20:25:38.034Z,-2.93
2024-01-16T20:29:21.321Z,-2.98
2024-01-16T20:33:04.523Z,-3.00
2024-01-16T20:36:52.966Z,-3.01
2024-01-16T20:40:38.364Z,-3.04
2024-01-16T20:44:21.911Z,-3.10
2024-01-16T20:48:05.615Z,-3.14
2024-01-16T20:51:48.825Z,-3.14
2024-01-16T20:55:31.730Z,-3.17
2024-01-16T20:59:15.987Z,-3.21
2024-01-16T21:02:58.930Z,-3.27
2024-01-16T21:06:42.820Z,-3.31
2024-01-16T21:10:25.725Z,-3.28
2024-01-16T21:14:08.608Z,-3.32
2024-01-16T21:17:53.312Z,-3.34
2024-01-16T21:21:36.363Z,-3.34
2024-01-16T21:25:20.495Z,-3.37
2024-01-16T21:29:03.385Z,-3.38
2024-01-16T21:32:46.342Z,-3.32
2024-01-16T21:36:31.411Z,-3.36
2024-01-16T21:40:14.758Z,-3.36
2024-01-16T21:43:57.912Z,-3.40
2024-01-16T21:47:41.069Z,-3.46
2024-01-16T21:51:24.547Z,-3.54
2024-01-16T21:55:09.763Z,-3.61
2024-01-16T21:58:52.619Z,-3.64
2024-01-16T22:02:35.538Z,-3.65
2024-01-16T22:06:18.506Z,-3.69
2024-01-16T22:10:01.619Z,-3.72
2024-01-16T22:13:46.185Z,-3.75
2024-01-16T22:17:30.572Z,-3.80
2024-01-16T22:21:13.606Z,-3.85
2024-01-16T22:24:56.515Z,-3.92
2024-01-16T22:28:44.507Z,-3.99
2024-01-16T22:32:30.346Z,-4.00
2024-01-16T22:36:16.221Z,-4.02
2024-01-16T22:39:59.113Z,-3.99
2024-01-16T22:43:41.990Z,-3.96
2024-01-16T22:47:24.978Z,-3.92
2024-01-16T22:51:10.490Z,-3.93
2024-01-16T22:54:53.525Z,-3.89
2024-01-16T22:58:36.432Z,-3.86
2024-01-16T23:02:19.305Z,-3.82
2024-01-16T23:06:02.740Z,-3.82
2024-01-16T23:09:48.154Z,-3.80
2024-01-16T23:13:31.334Z,-3.85
2024-01-16T23:17:14.185Z,-3.88
2024-01-16T23:20:57.082Z,-3.93
2024-01-16T23:24:40.030Z,-3.97
2024-01-16T23:28:24.314Z,-4.04
2024-01-16T23:32:08.409Z,-4.07
2024-01-16T23:35:51.281Z,-4.11
2024-01-16T23:39:35.668Z,-4.14
2024-01-16T23:43:24.160Z,-4.13
2024-01-16T23:47:08.982Z,-4.10
2024-01-16T23:50:52.674Z,-4.10
2024-01-16T23:54:35.551Z,-4.07
2024-01-16T23:58:18.421Z,-4.02
